Wilsonburg, West Virginia
Current Conditions -  °F | °C
As of 9:53 AM on Thursday 30 Oct 2014 (Local Time) from KCKB Reporting Station
Overcast Overcast  
Wind Chill:   Ceiling: 4500
Heat Index:   Visibility: 10mi
Dew Point:   Wind: 5mph
Humidity: 73%   Direction: 270°W
Pressure: 30.12"   Gusts: NA
Location:  39.29°N, 80.4°W
Report Text: KCKB 301353Z 27004KT 10SM OVC045 07/02 A3012 RMK AO2 SLP199 T00670022
Loading
Personal Weather Stations






























Interactive Weather Map
Tropical Storm Tracking
New forecast layout! Learn more

10-Day Weather Forecast

Advertisements
Track Severe Weather on mobile